createdAt,value
2019-03-02T00:02:48.539Z,99.90
2019-03-02T00:06:52.816Z,99.90
2019-03-02T00:10:57.069Z,99.80
2019-03-02T00:15:01.468Z,99.60
2019-03-02T00:19:06.685Z,99.60
2019-03-02T00:23:11.778Z,99.60
2019-03-02T00:27:17.776Z,99.60
2019-03-02T00:31:22.123Z,99.70
2019-03-02T00:35:26.538Z,99.60
2019-03-02T00:39:30.953Z,99.60
2019-03-02T00:43:35.320Z,99.50
2019-03-02T00:47:39.624Z,99.60
2019-03-02T00:51:46.248Z,99.50
2019-03-02T00:55:49.797Z,99.50
2019-03-02T00:59:54.059Z,99.50
2019-03-02T01:03:58.375Z,99.40
2019-03-02T01:08:02.731Z,99.50
2019-03-02T01:12:09.128Z,99.50
2019-03-02T01:16:13.029Z,99.40
2019-03-02T01:20:17.278Z,99.40
2019-03-02T01:24:21.578Z,99.70
2019-03-02T01:28:25.880Z,99.40
2019-03-02T01:32:31.133Z,99.40
2019-03-02T01:36:35.619Z,99.40
2019-03-02T01:40:40.790Z,99.40
2019-03-02T01:44:48.772Z,99.40
2019-03-02T01:48:51.935Z,99.50
2019-03-02T01:52:56.179Z,99.40
2019-03-02T01:57:00.478Z,99.50
2019-03-02T02:01:05.152Z,99.90
2019-03-02T02:05:09.558Z,99.50
2019-03-02T02:09:13.849Z,99.60
2019-03-02T02:13:18.203Z,99.70
2019-03-02T02:17:22.580Z,99.80
2019-03-02T02:21:27.430Z,99.90
2019-03-02T02:25:32.622Z,99.80
2019-03-02T02:29:40.636Z,99.80
2019-03-02T02:33:44.626Z,99.70
2019-03-02T02:37:49.061Z,99.60
2019-03-02T02:41:53.357Z,99.60
2019-03-02T02:45:57.686Z,99.50
2019-03-02T02:50:02.069Z,99.50
2019-03-02T02:54:06.513Z,99.40
2019-03-02T02:58:12.512Z,99.40
2019-03-02T03:02:16.923Z,99.40
2019-03-02T03:06:21.274Z,99.40
2019-03-02T03:10:44.625Z,99.40
2019-03-02T03:14:49.024Z,99.40
2019-03-02T03:18:53.725Z,99.40
2019-03-02T03:22:58.223Z,99.40
2019-03-02T03:27:02.525Z,99.40
2019-03-02T03:31:06.820Z,99.40
2019-03-02T03:35:16.866Z,99.40
2019-03-02T03:39:17.130Z,99.30
2019-03-02T03:43:21.423Z,99.30
2019-03-02T03:47:25.792Z,99.40
2019-03-02T03:51:30.515Z,99.40
2019-03-02T03:55:36.464Z,99.40
2019-03-02T03:59:40.745Z,99.30
2019-03-02T04:03:46.959Z,99.30
2019-03-02T04:07:51.593Z,99.20
2019-03-02T04:11:56.044Z,99.30
2019-03-02T04:16:00.363Z,99.30
2019-03-02T04:20:08.096Z,99.40
2019-03-02T04:24:11.900Z,99.30
2019-03-02T04:28:16.242Z,99.40
2019-03-02T04:32:27.340Z,99.40
2019-03-02T04:36:26.577Z,99.50
2019-03-02T04:40:30.872Z,99.50
2019-03-02T04:44:35.225Z,99.40
2019-03-02T04:48:40.076Z,99.40
2019-03-02T04:52:46.602Z,99.40
2019-03-02T04:56:50.367Z,99.40
2019-03-02T05:00:54.817Z,99.40
2019-03-02T05:04:59.144Z,99.80
2019-03-02T05:09:04.951Z,99.90
2019-03-02T05:13:09.202Z,99.90
2019-03-02T05:17:13.484Z,99.90
2019-03-02T05:21:17.942Z,99.90
2019-03-02T05:25:22.311Z,99.90
2019-03-02T05:29:26.592Z,99.90
2019-03-02T05:33:30.963Z,99.90
2019-03-02T05:37:39.337Z,99.90
2019-03-02T05:41:41.267Z,99.90
2019-03-02T05:45:45.538Z,99.90
2019-03-02T05:49:50.773Z,99.90
2019-03-02T05:53:55.782Z,99.90
2019-03-02T05:58:00.126Z,99.90
2019-03-02T06:02:04.475Z,99.90
2019-03-02T06:06:08.758Z,99.90
2019-03-02T06:10:13.807Z,99.90
2019-03-02T06:14:18.188Z,99.90
2019-03-02T06:18:22.774Z,99.90
2019-03-02T06:22:27.159Z,99.90
2019-03-02T06:26:31.702Z,99.90
2019-03-02T06:30:40.638Z,99.90
2019-03-02T06:34:43.780Z,99.90
2019-03-02T06:38:48.332Z,99.90
2019-03-02T06:42:54.058Z,99.90
2019-03-02T06:46:59.185Z,99.90
2019-03-02T06:51:03.797Z,99.90
2019-03-02T06:55:09.436Z,99.90
2019-03-02T06:59:13.868Z,99.90
2019-03-02T07:03:18.310Z,99.90
2019-03-02T07:07:22.837Z,99.90
2019-03-02T07:11:29.904Z,99.90
2019-03-02T07:15:33.373Z,99.90
2019-03-02T07:19:48.619Z,99.90
2019-03-02T07:23:53.450Z,99.90
2019-03-02T07:27:57.891Z,99.90
2019-03-02T07:32:02.352Z,99.90
2019-03-02T07:36:06.829Z,99.90
2019-03-02T07:40:11.359Z,99.90
2019-03-02T07:44:18.833Z,99.90
2019-03-02T07:48:21.883Z,99.90
2019-03-02T07:52:26.307Z,99.90
2019-03-02T07:56:32.497Z,99.90
2019-03-02T08:00:37.863Z,99.90
2019-03-02T08:04:42.744Z,99.90
2019-03-02T08:08:49.243Z,99.90
2019-03-02T08:12:53.181Z,99.90
2019-03-02T08:16:57.550Z,99.90
2019-03-02T08:21:01.900Z,99.90
2019-03-02T08:25:07.432Z,99.90
2019-03-02T08:29:11.890Z,99.90
2019-03-02T08:33:16.292Z,99.90
2019-03-02T08:37:20.660Z,99.90
2019-03-02T08:41:25.183Z,99.90
2019-03-02T08:45:30.975Z,99.90
2019-03-02T08:49:38.464Z,99.90
2019-03-02T08:53:41.751Z,99.90
2019-03-02T08:57:46.263Z,99.90
2019-03-02T09:01:51.297Z,99.90
2019-03-02T09:05:56.807Z,99.90
2019-03-02T09:10:01.184Z,99.90
2019-03-02T09:14:05.492Z,99.90
2019-03-02T09:18:12.774Z,99.90
2019-03-02T09:22:17.118Z,99.90
2019-03-02T09:26:21.592Z,99.90
2019-03-02T09:30:26.039Z,99.90
2019-03-02T09:34:30.547Z,99.90
2019-03-02T09:38:35.017Z,99.90
2019-03-02T09:42:41.214Z,99.90
2019-03-02T09:46:45.477Z,99.90
2019-03-02T09:50:49.920Z,99.90
2019-03-02T09:54:54.319Z,99.90
2019-03-02T09:59:01.651Z,99.90
2019-03-02T10:03:04.862Z,99.90
2019-03-02T10:07:28.425Z,99.90
2019-03-02T10:11:32.819Z,99.90
2019-03-02T10:15:37.290Z,99.20
2019-03-02T10:19:41.698Z,99.20
2019-03-02T10:23:46.103Z,98.80
2019-03-02T10:27:53.937Z,98.40
2019-03-02T10:31:56.398Z,97.80
2019-03-02T10:36:00.854Z,97.30
2019-03-02T10:40:08.850Z,97.00
2019-03-02T10:44:12.662Z,96.30
2019-03-02T10:48:17.107Z,97.20
2019-03-02T10:52:21.578Z,97.20
2019-03-02T10:56:26.120Z,97.50
2019-03-02T11:00:31.437Z,97.80
2019-03-02T11:04:49.536Z,98.00
2019-03-02T11:09:22.164Z,98.10
2019-03-02T11:13:46.776Z,98.10
2019-03-02T11:18:19.403Z,98.10
2019-03-02T11:22:38.729Z,98.10
2019-03-02T11:26:51.089Z,98.10
2019-03-02T11:31:26.388Z,98.70
2019-03-02T11:35:53.117Z,98.40
2019-03-02T11:40:16.460Z,98.30
2019-03-02T11:44:38.885Z,98.40
2019-03-02T11:48:56.726Z,98.00
2019-03-02T11:53:17.081Z,97.90
2019-03-02T11:57:50.275Z,98.00
2019-03-02T12:02:19.983Z,97.90
2019-03-02T12:06:47.527Z,97.80
2019-03-02T12:11:10.423Z,98.10
2019-03-02T12:15:31.114Z,97.90
2019-03-02T12:19:50.626Z,98.00
2019-03-02T12:24:15.181Z,97.90
2019-03-02T12:28:42.040Z,97.80
2019-03-02T12:33:02.730Z,97.70
2019-03-02T12:37:41.304Z,98.10
2019-03-02T12:42:05.134Z,98.40
2019-03-02T12:46:42.050Z,98.30
2019-03-02T12:51:17.775Z,98.40
2019-03-02T12:55:39.798Z,98.60
2019-03-02T13:00:06.154Z,98.60
2019-03-02T13:04:28.605Z,98.70
2019-03-02T13:08:55.047Z,98.70
2019-03-02T13:13:16.901Z,98.80
2019-03-02T13:17:44.499Z,98.90
2019-03-02T13:22:08.007Z,99.10
2019-03-02T13:26:18.750Z,99.10
2019-03-02T13:30:51.225Z,99.40
2019-03-02T13:35:19.915Z,99.20
2019-03-02T13:39:35.804Z,99.30
2019-03-02T13:43:45.927Z,99.30
2019-03-02T13:48:08.082Z,99.30
2019-03-02T13:52:22.177Z,99.30
2019-03-02T13:57:01.136Z,99.40
2019-03-02T14:01:21.136Z,99.40
2019-03-02T14:05:55.021Z,99.40
2019-03-02T14:10:23.949Z,99.40
2019-03-02T14:14:46.295Z,99.40
2019-03-02T14:19:09.654Z,99.40
2019-03-02T14:23:35.909Z,99.40
2019-03-02T14:27:54.031Z,99.50
2019-03-02T14:32:24.136Z,99.50
2019-03-02T14:36:36.456Z,99.50
2019-03-02T14:41:16.004Z,99.50
2019-03-02T14:45:48.407Z,99.60
2019-03-02T14:50:01.987Z,99.60
2019-03-02T14:54:17.281Z,99.60
2019-03-02T14:58:40.209Z,99.50
2019-03-02T15:03:12.924Z,99.60
2019-03-02T15:07:31.628Z,99.60
2019-03-02T15:11:53.657Z,99.50
2019-03-02T15:16:06.710Z,99.40
2019-03-02T15:20:28.859Z,99.50
2019-03-02T15:24:53.019Z,99.60
2019-03-02T15:29:14.944Z,99.60
2019-03-02T15:33:24.870Z,99.60
2019-03-02T15:37:38.908Z,99.70
2019-03-02T15:42:01.188Z,99.70
2019-03-02T15:46:27.356Z,99.90
2019-03-02T15:50:51.289Z,99.70
2019-03-02T15:55:13.625Z,99.70
2019-03-02T15:59:37.296Z,99.70
2019-03-02T16:04:00.926Z,99.90
2019-03-02T16:12:31.126Z,99.90
2019-03-02T16:16:59.859Z,99.90
2019-03-02T16:21:12.181Z,99.70
2019-03-02T16:25:26.535Z,99.60
2019-03-02T16:29:42.274Z,99.60
2019-03-02T16:34:04.319Z,99.60
2019-03-02T16:38:31.027Z,99.60
2019-03-02T16:42:50.968Z,99.60
2019-03-02T16:47:16.128Z,99.70
2019-03-02T16:51:41.920Z,99.70
2019-03-02T16:56:11.376Z,99.70
2019-03-02T17:00:28.778Z,99.60
2019-03-02T17:04:40.211Z,99.70
2019-03-02T17:09:08.027Z,99.60
2019-03-02T17:13:33.487Z,99.60
2019-03-02T17:17:51.291Z,99.60
2019-03-02T17:22:14.679Z,99.60
2019-03-02T17:26:42.089Z,99.60
2019-03-02T17:30:52.799Z,99.50
2019-03-02T17:35:25.175Z,99.50
2019-03-02T17:39:54.983Z,99.40
2019-03-02T17:44:18.741Z,99.40
2019-03-02T17:48:31.130Z,99.40
2019-03-02T17:52:46.835Z,99.40
2019-03-02T17:57:22.040Z,99.30
2019-03-02T18:01:42.879Z,99.40
2019-03-02T18:06:02.600Z,99.40
2019-03-02T18:10:17.789Z,99.30
2019-03-02T18:14:39.920Z,99.30
2019-03-02T18:18:44.387Z,99.30
2019-03-02T18:22:48.729Z,99.40
2019-03-02T18:26:53.063Z,99.40
2019-03-02T18:30:57.591Z,99.60
2019-03-02T18:35:02.859Z,99.50
2019-03-02T18:39:09.184Z,99.60
2019-03-02T18:43:15.306Z,99.80
2019-03-02T18:47:19.723Z,99.80
2019-03-02T18:51:46.232Z,99.90
2019-03-02T18:55:50.665Z,99.90
2019-03-02T18:59:54.983Z,99.90
2019-03-02T19:04:00.147Z,99.90
2019-03-02T19:08:04.750Z,99.90
2019-03-02T19:12:09.087Z,99.90
2019-03-02T19:16:13.424Z,99.90
2019-03-02T19:20:17.819Z,99.90
2019-03-02T19:24:22.221Z,99.90
2019-03-02T19:28:26.668Z,99.90
2019-03-02T19:32:31.107Z,99.90
2019-03-02T19:36:35.508Z,99.90
2019-03-02T19:40:39.875Z,99.90
2019-03-02T19:44:44.332Z,99.90
2019-03-02T19:48:49.092Z,99.90
2019-03-02T19:52:53.367Z,99.90
2019-03-02T19:56:57.738Z,99.90
2019-03-02T20:01:02.060Z,99.90
2019-03-02T20:05:06.646Z,99.90
2019-03-02T20:09:10.954Z,99.90
2019-03-02T20:13:15.360Z,99.90
2019-03-02T20:17:19.727Z,99.90
2019-03-02T20:21:24.166Z,99.90
2019-03-02T20:25:28.590Z,99.90
2019-03-02T20:29:32.887Z,99.90
2019-03-02T20:33:37.228Z,99.90
2019-03-02T20:37:41.559Z,99.90
2019-03-02T20:41:45.989Z,99.90
2019-03-02T20:45:50.312Z,99.90
2019-03-02T20:49:54.743Z,99.90
2019-03-02T20:53:59.012Z,99.90
2019-03-02T20:58:03.474Z,99.90
2019-03-02T21:02:07.871Z,99.90
2019-03-02T21:06:12.280Z,99.90
2019-03-02T21:10:17.862Z,99.90
2019-03-02T21:14:22.219Z,99.90
2019-03-02T21:18:26.622Z,99.90
2019-03-02T21:22:31.029Z,99.90
2019-03-02T21:26:35.518Z,99.90
2019-03-02T21:30:39.870Z,99.90
2019-03-02T21:34:44.247Z,99.90
2019-03-02T21:38:48.742Z,99.90
2019-03-02T21:42:53.121Z,99.90
2019-03-02T21:46:57.530Z,99.90
2019-03-02T21:51:02.036Z,99.90
2019-03-02T21:55:06.480Z,99.90
2019-03-02T21:59:10.866Z,99.90
2019-03-02T22:03:15.209Z,99.90
2019-03-02T22:07:19.552Z,99.90
2019-03-02T22:11:23.896Z,99.90
2019-03-02T22:15:28.328Z,99.90
2019-03-02T22:19:32.828Z,99.90
2019-03-02T22:23:37.113Z,99.90
2019-03-02T22:27:41.483Z,99.90
2019-03-02T22:31:45.906Z,99.90
2019-03-02T22:35:50.334Z,99.90
2019-03-02T22:39:55.255Z,99.90
2019-03-02T22:43:59.708Z,99.90
2019-03-02T22:48:03.981Z,99.90
2019-03-02T22:52:08.313Z,99.90
2019-03-02T22:56:12.639Z,99.90
2019-03-02T23:01:00.883Z,99.90
2019-03-02T23:05:05.183Z,99.90
2019-03-02T23:09:11.483Z,99.90
2019-03-02T23:13:16.924Z,99.90
2019-03-02T23:17:21.303Z,99.90
2019-03-02T23:21:25.757Z,99.90
2019-03-02T23:25:30.149Z,99.90
2019-03-02T23:29:34.658Z,99.90
2019-03-02T23:33:39.139Z,99.90
2019-03-02T23:37:43.603Z,99.90
2019-03-02T23:41:47.995Z,99.90
2019-03-02T23:45:52.356Z,99.90
2019-03-02T23:49:56.679Z,99.90
2019-03-02T23:54:01.137Z,99.90
2019-03-02T23:58:05.575Z,99.90
